createdAt,value
2022-11-14T00:03:40.700Z,9.01
2022-11-14T00:07:59.377Z,8.97
2022-11-14T00:12:18.333Z,8.76
2022-11-14T00:16:37.178Z,8.82
2022-11-14T00:20:58.813Z,8.70
2022-11-14T00:25:17.406Z,8.74
2022-11-14T00:29:35.870Z,8.49
2022-11-14T00:33:54.469Z,8.65
2022-11-14T00:38:17.645Z,8.56
2022-11-14T00:42:37.744Z,8.36
2022-11-14T00:46:56.750Z,8.29
2022-11-14T00:51:16.118Z,8.41
2022-11-14T00:55:37.761Z,8.35
2022-11-14T00:59:56.637Z,8.35
2022-11-14T01:04:15.354Z,8.42
2022-11-14T01:08:34.420Z,8.35
2022-11-14T01:12:55.769Z,8.24
2022-11-14T01:17:14.583Z,8.25
2022-11-14T01:21:33.474Z,8.12
2022-11-14T01:25:52.034Z,8.09
2022-11-14T01:30:15.772Z,8.01
2022-11-14T01:34:34.412Z,7.92
2022-11-14T01:38:57.103Z,7.94
2022-11-14T01:43:31.651Z,7.87
2022-11-14T01:47:52.987Z,7.84
2022-11-14T01:52:17.561Z,7.94
2022-11-14T01:56:41.038Z,7.76
2022-11-14T02:01:00.944Z,7.68
2022-11-14T02:05:22.795Z,7.69
2022-11-14T02:09:45.697Z,7.65
2022-11-14T02:14:04.845Z,7.60
2022-11-14T02:18:23.315Z,7.51
2022-11-14T02:22:45.728Z,7.49
2022-11-14T02:27:05.219Z,7.55
2022-11-14T02:31:23.883Z,7.57
2022-11-14T02:35:42.684Z,7.62
2022-11-14T02:40:04.124Z,7.62
2022-11-14T02:44:22.895Z,7.52
2022-11-14T02:48:41.833Z,7.63
2022-11-14T02:53:00.441Z,7.73
2022-11-14T02:57:21.340Z,7.59
2022-11-14T03:01:40.419Z,7.59
2022-11-14T03:06:02.641Z,7.45
2022-11-14T03:10:21.902Z,7.33
2022-11-14T03:14:43.789Z,7.21
2022-11-14T03:19:02.546Z,7.31
2022-11-14T03:23:21.272Z,7.21
2022-11-14T03:27:40.061Z,7.17
2022-11-14T03:32:01.165Z,7.27
2022-11-14T03:36:19.789Z,7.25
2022-11-14T03:40:42.079Z,7.28
2022-11-14T03:45:00.822Z,7.03
2022-11-14T03:49:22.347Z,7.25
2022-11-14T03:53:41.097Z,7.40
2022-11-14T03:57:59.666Z,7.44
2022-11-14T04:02:18.482Z,7.49
2022-11-14T04:06:39.711Z,7.33
2022-11-14T04:10:58.377Z,7.33
2022-11-14T04:15:16.821Z,7.27
2022-11-14T04:19:35.656Z,7.41
2022-11-14T04:23:57.116Z,7.40
2022-11-14T04:28:16.859Z,7.33
2022-11-14T04:32:35.674Z,7.69
2022-11-14T04:36:54.714Z,7.78
2022-11-14T04:41:16.063Z,7.36
2022-11-14T04:45:34.646Z,7.39
2022-11-14T04:49:53.364Z,7.32
2022-11-14T04:54:12.219Z,7.34
2022-11-14T04:58:33.486Z,7.26
2022-11-14T05:02:52.552Z,7.19
2022-11-14T05:07:11.056Z,6.99
2022-11-14T05:11:29.912Z,7.31
2022-11-14T05:15:51.347Z,7.43
2022-11-14T05:20:11.649Z,7.37
2022-11-14T05:24:30.383Z,7.23
2022-11-14T05:28:48.913Z,7.37
2022-11-14T05:33:10.053Z,7.13
2022-11-14T05:37:28.793Z,7.45
2022-11-14T05:41:47.267Z,7.23
2022-11-14T05:46:08.957Z,7.24
2022-11-14T05:50:30.282Z,7.28
2022-11-14T05:54:48.911Z,7.27
2022-11-14T05:59:07.826Z,7.29
2022-11-14T06:03:26.651Z,7.30
2022-11-14T06:07:48.948Z,7.28
2022-11-14T06:12:08.689Z,7.13
2022-11-14T06:16:27.197Z,7.01
2022-11-14T06:20:45.674Z,7.07
2022-11-14T06:25:07.249Z,7.09
2022-11-14T06:29:29.103Z,7.16
2022-11-14T06:33:50.632Z,7.07
2022-11-14T06:38:09.499Z,7.18
2022-11-14T06:42:30.972Z,7.31
2022-11-14T06:46:49.481Z,7.27
2022-11-14T06:51:09.849Z,7.66
2022-11-14T06:55:28.479Z,7.55
2022-11-14T06:59:49.584Z,7.60
2022-11-14T07:04:08.369Z,7.71
2022-11-14T07:08:27.760Z,7.94
2022-11-14T07:13:33.141Z,8.04
2022-11-14T07:17:55.241Z,8.37
2022-11-14T07:22:14.399Z,8.76
2022-11-14T07:26:33.501Z,9.03
2022-11-14T07:30:52.437Z,9.02
2022-11-14T07:35:23.570Z,9.34
2022-11-14T07:39:46.727Z,9.73
2022-11-14T07:44:26.883Z,9.94
2022-11-14T07:48:46.134Z,10.02
2022-11-14T07:53:07.594Z,10.32
2022-11-14T07:57:26.733Z,10.61
2022-11-14T08:01:45.205Z,10.90
2022-11-14T08:06:04.799Z,11.24
2022-11-14T08:10:29.680Z,11.61
2022-11-14T08:14:51.109Z,11.66
2022-11-14T08:19:10.246Z,12.30
2022-11-14T08:23:28.637Z,12.77
2022-11-14T08:27:50.111Z,12.87
2022-11-14T08:32:08.839Z,13.14
2022-11-14T08:36:27.853Z,13.50
2022-11-14T08:40:47.049Z,13.52
2022-11-14T08:45:11.225Z,13.75
2022-11-14T08:49:31.621Z,13.94
2022-11-14T08:53:52.525Z,14.15
2022-11-14T08:58:13.383Z,14.37
2022-11-14T09:02:35.633Z,14.99
2022-11-14T09:06:55.200Z,15.32
2022-11-14T09:11:18.982Z,15.73
2022-11-14T09:15:38.763Z,16.40
2022-11-14T09:20:01.023Z,16.56
2022-11-14T09:24:20.084Z,16.18
2022-11-14T09:28:41.098Z,16.35
2022-11-14T09:33:11.073Z,16.32
2022-11-14T09:37:34.678Z,17.16
2022-11-14T09:42:17.353Z,17.34
2022-11-14T09:46:45.388Z,18.32
2022-11-14T09:51:13.126Z,18.93
2022-11-14T09:55:37.697Z,19.30
2022-11-14T10:00:03.745Z,18.90
2022-11-14T10:04:40.633Z,18.78
2022-11-14T10:09:38.597Z,19.33
2022-11-14T10:14:41.175Z,18.65
2022-11-14T10:19:18.954Z,19.79
2022-11-14T10:23:48.907Z,19.66
2022-11-14T10:28:49.839Z,18.41
2022-11-14T10:33:52.830Z,18.97
2022-11-14T10:38:23.051Z,20.18
2022-11-14T10:42:59.175Z,20.46
2022-11-14T10:47:38.789Z,20.82
2022-11-14T10:58:07.209Z,21.64
2022-11-14T11:03:08.805Z,21.42
2022-11-14T11:12:49.804Z,22.94
2022-11-14T11:17:21.258Z,23.58
2022-11-14T11:21:52.829Z,23.77
2022-11-14T11:26:22.897Z,23.36
2022-11-14T11:30:42.332Z,24.35
2022-11-14T11:35:03.896Z,24.14
2022-11-14T11:39:30.871Z,23.83
2022-11-14T11:43:58.047Z,24.37
2022-11-14T11:48:22.337Z,25.26
2022-11-14T11:52:51.744Z,25.00
2022-11-14T11:57:22.078Z,25.13
2022-11-14T12:01:43.650Z,25.95
2022-11-14T12:06:18.048Z,26.60
2022-11-14T12:11:30.236Z,26.27
2022-11-14T12:22:45.212Z,25.65
2022-11-14T12:54:58.086Z,22.91
2022-11-14T13:11:11.365Z,24.45
2022-11-14T13:22:03.129Z,22.36
2022-11-14T13:27:24.799Z,21.41
2022-11-14T13:31:54.398Z,20.98
2022-11-14T13:42:18.370Z,22.76
2022-11-14T13:47:12.061Z,23.29
2022-11-14T13:51:48.220Z,23.43
2022-11-14T13:56:27.360Z,22.72
2022-11-14T14:01:14.638Z,21.14
2022-11-14T14:06:03.987Z,20.99
2022-11-14T14:10:38.663Z,21.58
2022-11-14T14:15:15.516Z,22.42
2022-11-14T14:19:58.799Z,22.95
2022-11-14T14:24:52.705Z,22.66
2022-11-14T14:29:30.169Z,21.73
2022-11-14T14:33:52.032Z,20.99
2022-11-14T14:38:26.041Z,21.24
2022-11-14T14:42:49.894Z,21.29
2022-11-14T14:47:20.744Z,21.60
2022-11-14T14:51:42.916Z,21.74
2022-11-14T14:56:07.629Z,21.74
2022-11-14T15:00:29.828Z,21.50
2022-11-14T15:04:51.493Z,21.39
2022-11-14T15:09:17.885Z,20.40
2022-11-14T15:13:40.231Z,19.65
2022-11-14T15:18:00.919Z,19.10
2022-11-14T15:22:29.301Z,18.59
2022-11-14T15:26:50.706Z,18.11
2022-11-14T15:31:24.230Z,17.86
2022-11-14T15:35:44.219Z,17.63
2022-11-14T15:40:20.718Z,17.50
2022-11-14T15:44:42.316Z,17.44
2022-11-14T15:49:09.685Z,17.12
2022-11-14T15:53:33.416Z,16.84
2022-11-14T15:58:13.601Z,16.57
2022-11-14T16:02:34.588Z,16.54
2022-11-14T16:06:55.885Z,16.60
2022-11-14T16:11:15.415Z,16.58
2022-11-14T16:15:34.789Z,16.12
2022-11-14T16:19:53.342Z,16.16
2022-11-14T16:24:19.725Z,16.10
2022-11-14T16:28:39.129Z,15.96
2022-11-14T16:32:57.788Z,15.96
2022-11-14T16:37:17.547Z,15.81
2022-11-14T16:41:38.958Z,15.49
2022-11-14T16:45:57.368Z,15.39
2022-11-14T16:50:16.282Z,15.21
2022-11-14T16:54:34.960Z,15.09
2022-11-14T16:58:59.647Z,15.09
2022-11-14T17:03:18.913Z,15.02
2022-11-14T17:07:37.840Z,14.94
2022-11-14T17:11:56.833Z,14.89
2022-11-14T17:16:18.720Z,14.70
2022-11-14T17:20:39.564Z,14.70
2022-11-14T17:24:58.390Z,14.73
2022-11-14T17:29:17.266Z,14.46
2022-11-14T17:33:38.702Z,14.46
2022-11-14T17:38:00.333Z,14.55
2022-11-14T17:42:19.495Z,14.51
2022-11-14T17:46:38.287Z,14.56
2022-11-14T17:51:05.617Z,14.73
2022-11-14T17:55:24.753Z,14.43
2022-11-14T17:59:43.714Z,14.29
2022-11-14T18:04:06.169Z,14.11
2022-11-14T18:08:29.243Z,13.86
2022-11-14T18:12:48.168Z,13.54
2022-11-14T18:17:12.692Z,13.47
2022-11-14T18:21:32.304Z,13.32
2022-11-14T18:25:53.315Z,13.24
2022-11-14T18:30:34.692Z,13.15
2022-11-14T18:34:52.252Z,13.21
2022-11-14T18:39:11.489Z,13.38
2022-11-14T18:43:34.765Z,13.53
2022-11-14T18:47:53.312Z,13.61
2022-11-14T18:52:17.235Z,13.50
2022-11-14T18:56:36.348Z,13.36
2022-11-14T19:00:57.359Z,13.35
2022-11-14T19:05:16.466Z,13.32
2022-11-14T19:09:35.608Z,12.80
2022-11-14T19:13:54.284Z,12.78
2022-11-14T19:18:15.617Z,12.66
2022-11-14T19:22:34.920Z,12.60
2022-11-14T19:26:53.540Z,12.52
2022-11-14T19:31:13.473Z,12.19
2022-11-14T19:35:34.635Z,12.46
2022-11-14T19:39:55.592Z,12.52
2022-11-14T19:44:14.267Z,12.49
2022-11-14T19:48:32.776Z,12.62
2022-11-14T19:52:54.831Z,12.73
2022-11-14T19:57:13.679Z,12.45
2022-11-14T20:01:32.500Z,12.31
2022-11-14T20:06:45.275Z,12.25
2022-11-14T20:12:02.458Z,12.30
2022-11-14T20:17:22.175Z,12.41
2022-11-14T20:28:11.123Z,11.40
2022-11-14T21:10:45.971Z,11.07
2022-11-14T21:15:52.287Z,11.46
2022-11-14T21:25:41.220Z,11.44
2022-11-14T21:30:00.559Z,11.93
2022-11-14T21:34:19.956Z,11.77
2022-11-14T21:38:38.539Z,11.80
2022-11-14T21:42:59.630Z,11.68
2022-11-14T21:47:18.192Z,11.71
2022-11-14T21:51:36.793Z,11.62
2022-11-14T21:55:55.907Z,11.61
2022-11-14T22:00:18.741Z,11.53
2022-11-14T22:04:39.129Z,11.38
2022-11-14T22:08:58.873Z,11.33
2022-11-14T22:13:17.880Z,11.23
2022-11-14T22:17:40.749Z,11.14
2022-11-14T22:21:59.828Z,11.19
2022-11-14T22:26:18.789Z,11.11
2022-11-14T22:30:37.206Z,11.17
2022-11-14T22:34:58.240Z,11.01
2022-11-14T22:39:16.998Z,11.04
2022-11-14T22:43:37.426Z,10.83
2022-11-14T22:48:00.392Z,10.77
2022-11-14T22:52:21.419Z,10.68
2022-11-14T22:56:39.973Z,10.64
2022-11-14T23:00:59.015Z,10.63
2022-11-14T23:05:17.721Z,10.55
2022-11-14T23:09:39.306Z,10.63
2022-11-14T23:14:00.447Z,10.66
2022-11-14T23:18:19.580Z,10.71
2022-11-14T23:22:39.867Z,10.63
2022-11-14T23:27:00.837Z,10.66
2022-11-14T23:31:19.840Z,10.74
2022-11-14T23:35:38.228Z,10.85
2022-11-14T23:39:56.773Z,11.17
2022-11-14T23:44:18.469Z,11.59
2022-11-14T23:48:37.229Z,11.53
2022-11-14T23:52:55.943Z,11.68
2022-11-14T23:57:14.425Z,11.65
